Time;durP1;ratioP1;P1;durP2;ratioP2;P2;SDS_P1;SDS_P2;PMS_P1;PMS_P2;Temp;Humidity;BMP_temperature;BMP_pressure;BME280_temperature;BME280_humidity;BME280_pressure;Samples;Min_cycle;Max_cycle;Signal;HPM_P1;HPM_P2
2022/08/03 00:00:07;;;;;;;13.65;9.43;;;18.60;86.40;;;;;;5088954;28;20048;-48
2022/08/03 00:02:32;;;;;;;11.13;9.95;;;18.60;86.40;;;;;;5090354;28;20325;-48
2022/08/03 00:04:58;;;;;;;14.07;11.18;;;18.60;86.40;;;;;;5098888;28;20042;-46
2022/08/03 00:07:26;;;;;;;12.02;9.48;;;18.60;86.40;;;;;;5108044;28;20557;-46
2022/08/03 00:09:51;;;;;;;10.63;9.60;;;18.50;86.50;;;;;;5109620;28;20357;-48
2022/08/03 00:12:17;;;;;;;10.43;9.43;;;18.50;86.60;;;;;;5107115;28;20031;-47
2022/08/03 00:14:43;;;;;;;10.68;9.57;;;18.60;86.50;;;;;;5107515;28;20593;-47
2022/08/03 00:17:09;;;;;;;12.45;11.27;;;18.50;86.60;;;;;;5103512;28;20028;-46
2022/08/03 00:19:34;;;;;;;12.00;10.77;;;18.60;86.70;;;;;;5106874;28;20034;-47
2022/08/03 00:22:00;;;;;;;12.75;10.73;;;18.60;86.70;;;;;;5105908;28;20058;-50
2022/08/03 00:24:26;;;;;;;11.55;10.35;;;18.60;86.80;;;;;;5106364;28;20102;-46
2022/08/03 00:26:51;;;;;;;11.75;10.52;;;18.60;86.80;;;;;;5104144;28;20031;-47
2022/08/03 00:29:19;;;;;;;11.00;9.93;;;18.60;86.70;;;;;;5112468;28;20123;-46
2022/08/03 00:31:45;;;;;;;10.68;9.57;;;18.60;86.70;;;;;;5112199;28;20020;-46
2022/08/03 00:34:10;;;;;;;11.80;9.93;;;18.60;86.60;;;;;;5113054;28;20027;-46
2022/08/03 00:36:36;;;;;;;10.68;9.40;;;18.60;86.70;;;;;;5082616;28;20081;-46
2022/08/03 00:39:04;;;;;;;11.98;10.77;;;18.50;86.60;;;;;;5093063;28;20058;-47
2022/08/03 00:41:30;;;;;;;12.63;10.90;;;18.50;86.70;;;;;;5094103;28;20035;-46
2022/08/03 00:43:56;;;;;;;11.55;10.55;;;18.50;86.70;;;;;;5092954;28;20393;-46
2022/08/03 00:46:22;;;;;;;12.77;11.48;;;18.50;86.80;;;;;;5076144;28;20032;-47
2022/08/03 00:48:51;;;;;;;12.18;10.88;;;18.50;86.80;;;;;;5087291;28;20026;-46
2022/08/03 00:51:17;;;;;;;;;;;18.50;86.80;;;;;;5111713;28;20465;-46
2022/08/03 00:53:44;;;;;;;12.70;11.20;;;18.50;86.80;;;;;;5111740;28;19956;-51
2022/08/03 00:56:13;;;;;;;13.75;11.73;;;18.40;86.80;;;;;;5075994;28;20020;-49
2022/08/03 00:58:39;;;;;;;14.30;11.60;;;18.40;86.80;;;;;;5092648;28;20028;-47
2022/08/03 01:01:05;;;;;;;13.73;10.82;;;18.40;87.00;;;;;;5103280;28;20050;-49
2022/08/03 01:03:31;;;;;;;16.15;10.38;;;18.40;87.00;;;;;;5092727;28;20470;-49
2022/08/03 01:06:12;;;;;;;13.60;11.10;;;18.40;87.10;;;;;;5110043;28;20083;-51
2022/08/03 01:08:59;;;;;;;15.80;11.18;;;18.40;87.20;;;;;;5111029;28;20940;-46
2022/08/03 01:11:27;;;;;;;12.90;10.13;;;18.40;87.30;;;;;;5111169;28;20066;-46
2022/08/03 01:14:03;;;;;;;15.25;11.38;;;18.40;87.30;;;;;;5112704;28;20030;-47
2022/08/03 01:16:58;;;;;;;11.70;9.95;;;18.40;87.30;;;;;;5100819;28;20081;-48
2022/08/03 01:19:36;;;;;;;12.70;10.45;;;18.40;87.30;;;;;;5091006;28;20032;-46
2022/08/03 01:22:07;;;;;;;11.95;10.68;;;18.40;87.50;;;;;;5107658;28;20063;-48
2022/08/03 01:24:38;;;;;;;15.93;9.35;;;18.30;87.50;;;;;;5112551;28;20042;-49
2022/08/03 01:27:33;;;;;;;12.35;8.93;;;18.40;87.60;;;;;;5097912;28;20415;-49
2022/08/03 01:30:08;;;;;;;11.85;9.57;;;18.40;87.50;;;;;;5091434;28;20032;-48
2022/08/03 01:32:49;;;;;;;11.85;9.15;;;18.40;87.40;;;;;;5099810;28;20137;-48
2022/08/03 01:35:26;;;;;;;13.48;9.45;;;18.40;87.50;;;;;;5111950;28;20085;-49
2022/08/03 01:37:56;;;;;;;12.15;9.00;;;18.40;87.50;;;;;;5111674;28;20177;-46
2022/08/03 01:40:25;;;;;;;10.20;8.32;;;18.40;87.60;;;;;;5110339;28;20391;-44
2022/08/03 01:42:53;;;;;;;10.47;8.30;;;18.40;87.80;;;;;;5091369;28;20048;-48
2022/08/03 01:45:23;;;;;;;10.32;8.00;;;18.40;87.70;;;;;;5092811;28;20258;-46
2022/08/03 01:47:51;;;;;;;10.70;9.65;;;18.40;87.70;;;;;;5110127;28;20107;-48
2022/08/03 01:50:25;;;;;;;13.90;9.30;;;18.40;87.60;;;;;;5092073;28;20023;-48
2022/08/03 01:52:51;;;;;;;11.50;9.45;;;18.30;87.70;;;;;;5073148;28;20097;-46
2022/08/03 01:55:20;;;;;;;12.73;9.88;;;18.30;87.90;;;;;;5092168;28;20016;-47
2022/08/03 01:57:47;;;;;;;12.68;9.50;;;18.30;87.90;;;;;;5090959;28;20449;-46
2022/08/03 02:00:13;;;;;;;12.50;9.05;;;18.30;88.00;;;;;;5094838;28;20479;-46
2022/08/03 02:02:41;;;;;;;10.82;9.65;;;18.30;88.00;;;;;;5090804;28;20032;-46
2022/08/03 02:05:11;;;;;;;17.23;10.48;;;18.30;88.10;;;;;;5076974;28;20027;-52
2022/08/03 02:07:39;;;;;;;11.40;10.23;;;18.30;88.00;;;;;;5093274;28;20035;-45
2022/08/03 02:10:06;;;;;;;16.88;11.48;;;18.30;87.90;;;;;;5109089;28;20019;-48
2022/08/03 02:12:34;;;;;;;18.15;10.35;;;18.30;88.00;;;;;;5111278;28;20098;-47
2022/08/03 02:15:01;;;;;;;11.65;10.55;;;18.20;88.10;;;;;;5108342;28;20024;-49
2022/08/03 02:17:28;;;;;;;11.02;9.93;;;18.20;88.10;;;;;;5073923;28;20040;-48
2022/08/03 02:19:57;;;;;;;12.85;9.88;;;18.20;88.10;;;;;;5075174;28;20103;-46
2022/08/03 02:22:24;;;;;;;13.32;10.48;;;18.20;88.00;;;;;;5111453;28;20433;-46
2022/08/03 02:24:50;;;;;;;12.13;10.93;;;18.20;88.00;;;;;;5109633;28;20037;-50
2022/08/03 02:27:22;;;;;;;12.63;10.45;;;18.20;88.00;;;;;;5111261;28;20724;-49
2022/08/03 02:29:52;;;;;;;10.57;9.57;;;18.20;87.90;;;;;;5091350;28;20344;-46
2022/08/03 02:32:24;;;;;;;14.68;10.50;;;18.20;88.00;;;;;;5109510;28;20030;-46
2022/08/03 02:34:52;;;;;;;12.73;10.82;;;18.20;88.00;;;;;;5109687;28;20081;-48
2022/08/03 02:37:20;;;;;;;13.10;10.20;;;18.20;88.00;;;;;;5090749;28;20016;-49
2022/08/03 02:39:48;;;;;;;11.32;9.90;;;18.20;88.00;;;;;;5091441;28;20035;-46
2022/08/03 02:42:15;;;;;;;13.15;10.60;;;18.10;87.90;;;;;;5090842;28;20051;-47
2022/08/03 02:44:47;;;;;;;15.98;11.48;;;18.10;88.10;;;;;;5090863;28;20037;-47
2022/08/03 02:47:19;;;;;;;11.35;9.82;;;18.10;88.10;;;;;;5108369;28;20074;-48
2022/08/03 02:49:49;;;;;;;12.30;10.02;;;18.00;88.20;;;;;;5109250;28;20066;-46
2022/08/03 02:52:16;;;;;;;14.77;9.45;;;18.00;88.30;;;;;;5090356;28;20024;-46
2022/08/03 02:54:47;;;;;;;12.35;9.18;;;18.00;88.20;;;;;;5072511;28;20024;-46
2022/08/03 02:57:13;;;;;;;14.63;9.65;;;18.00;88.30;;;;;;5088589;28;20331;-47
2022/08/03 02:59:41;;;;;;;13.32;9.23;;;17.90;88.20;;;;;;5090226;28;20536;-48
2022/08/03 03:02:09;;;;;;;12.85;8.60;;;18.00;88.40;;;;;;5107355;28;20035;-47
2022/08/03 03:04:38;;;;;;;12.45;8.88;;;17.90;88.20;;;;;;5110450;28;20036;-46
2022/08/03 03:07:04;;;;;;;12.95;9.00;;;17.90;88.30;;;;;;5091143;28;20118;-49
2022/08/03 03:09:32;;;;;;;10.57;8.13;;;17.90;88.50;;;;;;5072064;28;20050;-49
2022/08/03 03:11:59;;;;;;;12.60;8.23;;;17.90;88.40;;;;;;5108259;28;20073;-47
2022/08/03 03:14:26;;;;;;;12.00;8.20;;;17.90;88.40;;;;;;5110473;28;20034;-47
2022/08/03 03:16:54;;;;;;;10.90;7.93;;;17.90;88.50;;;;;;5107392;28;20471;-46
2022/08/03 03:19:20;;;;;;;12.30;7.40;;;17.90;88.50;;;;;;5110085;28;20452;-46
2022/08/03 03:21:49;;;;;;;16.52;8.55;;;17.90;88.70;;;;;;5092977;28;20077;-46
2022/08/03 03:24:15;;;;;;;10.10;7.10;;;17.90;88.60;;;;;;5089748;28;20127;-48
2022/08/03 03:26:42;;;;;;;14.13;7.45;;;17.90;88.50;;;;;;5091150;28;20649;-47
2022/08/03 03:29:08;;;;;;;11.30;6.72;;;17.90;88.50;;;;;;5089997;28;20039;-52
2022/08/03 03:31:35;;;;;;;12.05;6.43;;;17.90;88.50;;;;;;5092258;28;20028;-46
2022/08/03 03:34:03;;;;;;;11.05;6.80;;;17.90;88.40;;;;;;5090139;28;20420;-48
2022/08/03 03:36:29;;;;;;;9.60;6.00;;;17.90;88.60;;;;;;5103759;28;20028;-48
2022/08/03 03:38:56;;;;;;;9.45;6.35;;;17.80;88.60;;;;;;5091983;28;20543;-46
2022/08/03 03:41:22;;;;;;;10.13;6.20;;;17.80;88.70;;;;;;5107954;28;20031;-50
2022/08/03 03:43:49;;;;;;;14.32;6.30;;;17.80;88.70;;;;;;5091590;28;20409;-46
2022/08/03 03:46:17;;;;;;;7.85;5.82;;;17.80;88.60;;;;;;5107205;28;20114;-49
2022/08/03 03:48:43;;;;;;;10.73;5.65;;;17.80;88.80;;;;;;5091130;28;20031;-49
2022/08/03 03:51:09;;;;;;;12.10;5.60;;;17.80;88.70;;;;;;5097650;28;20031;-49
2022/08/03 03:53:37;;;;;;;8.52;6.15;;;17.80;88.70;;;;;;5070977;28;20023;-48
2022/08/03 03:56:06;;;;;;;8.07;5.88;;;17.80;88.70;;;;;;5090056;28;20035;-52
2022/08/03 03:58:32;;;;;;;7.53;5.07;;;17.80;88.70;;;;;;5084123;28;20043;-50
2022/08/03 04:00:58;;;;;;;10.32;6.25;;;17.80;88.70;;;;;;5090065;28;20025;-48
2022/08/03 04:03:23;;;;;;;13.55;6.57;;;17.90;88.70;;;;;;5091651;28;20414;-52
2022/08/03 04:11:24;;;;;;;11.38;6.68;;;17.90;88.60;;;;;;5090558;28;20441;-49
2022/08/03 04:14:06;;;;;;;7.25;5.90;;;17.80;88.60;;;;;;5072800;28;20066;-49
2022/08/03 04:16:40;;;;;;;12.68;6.93;;;17.80;88.70;;;;;;5104317;28;20414;-46
2022/08/03 04:19:09;;;;;;;8.85;5.75;;;17.80;88.80;;;;;;5106290;28;20024;-47
2022/08/03 04:21:39;;;;;;;8.93;6.25;;;17.90;88.90;;;;;;5089470;28;20366;-49
2022/08/03 04:24:09;;;;;;;12.18;6.25;;;17.80;88.80;;;;;;5090485;28;20035;-50
2022/08/03 04:26:38;;;;;;;8.35;5.40;;;17.90;88.80;;;;;;5071428;28;20024;-51
2022/08/03 04:29:05;;;;;;;7.80;5.82;;;17.90;88.70;;;;;;5073338;28;20449;-48
2022/08/03 04:31:34;;;;;;;9.68;6.13;;;17.90;88.70;;;;;;5107901;28;20081;-50
2022/08/03 04:34:01;;;;;;;10.45;7.20;;;17.90;88.70;;;;;;5108064;28;20459;-46
2022/08/03 04:36:32;;;;;;;8.02;5.93;;;17.90;88.80;;;;;;5088740;28;20021;-48
2022/08/03 04:39:09;;;;;;;7.70;6.38;;;17.90;88.80;;;;;;5089246;28;20020;-46
2022/08/03 04:41:35;;;;;;;12.80;6.78;;;17.90;88.80;;;;;;5088989;28;20066;-50
2022/08/03 04:44:03;;;;;;;11.68;7.63;;;17.90;88.80;;;;;;5071115;28;20028;-50
2022/08/03 04:46:33;;;;;;;11.32;6.40;;;17.90;88.80;;;;;;5100675;28;20403;-46
2022/08/03 04:49:00;;;;;;;12.25;7.70;;;17.90;88.80;;;;;;5109079;28;20349;-49
2022/08/03 04:51:28;;;;;;;9.52;8.00;;;17.90;88.70;;;;;;5089184;28;20047;-46
2022/08/03 04:53:54;;;;;;;8.93;7.30;;;18.00;88.70;;;;;;5088782;28;20097;-48
2022/08/03 04:56:20;;;;;;;15.82;7.88;;;18.00;88.70;;;;;;5090925;28;20032;-46
2022/08/03 04:58:45;;;;;;;12.52;8.45;;;18.00;88.60;;;;;;5089361;28;20506;-46
2022/08/03 05:01:11;;;;;;;11.95;9.10;;;18.10;88.50;;;;;;5096482;28;20531;-48
2022/08/03 05:03:39;;;;;;;12.85;8.65;;;18.10;88.50;;;;;;5070952;28;20445;-48
2022/08/03 05:06:05;;;;;;;11.40;8.77;;;18.10;88.40;;;;;;5105370;28;20047;-47
2022/08/03 05:08:30;;;;;;;13.18;8.93;;;18.20;88.40;;;;;;5109360;28;20036;-46
2022/08/03 05:10:57;;;;;;;11.93;8.95;;;18.20;88.30;;;;;;5107554;28;20036;-46
2022/08/03 05:13:22;;;;;;;10.05;8.50;;;18.20;88.20;;;;;;5091143;28;20348;-46
2022/08/03 05:15:48;;;;;;;11.82;8.57;;;18.20;88.20;;;;;;5105410;28;20023;-47
2022/08/03 05:18:16;;;;;;;15.52;8.95;;;18.30;88.20;;;;;;5112806;28;20393;-47
2022/08/03 05:20:42;;;;;;;11.95;8.73;;;18.30;88.10;;;;;;5081797;28;20046;-46
2022/08/03 05:23:09;;;;;;;15.32;8.60;;;18.30;88.00;;;;;;5092370;28;20024;-46
2022/08/03 05:25:38;;;;;;;14.75;8.85;;;18.40;88.10;;;;;;5093387;28;20036;-48
2022/08/03 05:28:06;;;;;;;10.85;7.55;;;18.40;88.00;;;;;;5092348;28;20506;-50
2022/08/03 05:30:34;;;;;;;11.38;7.72;;;18.50;87.90;;;;;;5098995;28;20028;-47
2022/08/03 05:33:02;;;;;;;10.70;7.45;;;18.60;87.60;;;;;;5092232;28;20107;-47
2022/08/03 05:35:28;;;;;;;12.93;8.00;;;18.70;87.60;;;;;;5097953;28;20055;-46
2022/08/03 05:37:53;;;;;;;11.13;6.75;;;18.70;87.70;;;;;;5112379;28;20048;-46
2022/08/03 05:40:19;;;;;;;9.52;6.43;;;18.80;87.70;;;;;;5111295;28;20039;-46
2022/08/03 05:42:45;;;;;;;7.95;6.13;;;18.90;87.70;;;;;;5111902;28;20044;-45
2022/08/03 05:45:14;;;;;;;10.93;6.22;;;18.90;87.60;;;;;;5097199;28;20112;-48
2022/08/03 05:47:43;;;;;;;9.00;5.40;;;19.00;87.60;;;;;;5091898;28;20024;-45
2022/08/03 05:50:10;;;;;;;8.40;5.80;;;19.20;87.40;;;;;;5103385;28;20337;-47
2022/08/03 05:52:36;;;;;;;7.85;4.80;;;19.20;87.20;;;;;;5110677;28;20023;-46
2022/08/03 05:55:03;;;;;;;9.05;5.20;;;19.40;87.10;;;;;;5109976;28;20027;-48
2022/08/03 05:57:29;;;;;;;12.15;5.57;;;19.40;86.80;;;;;;5112121;28;20034;-50
2022/08/03 05:59:54;;;;;;;10.40;4.88;;;19.50;86.70;;;;;;5086871;28;20095;-46
2022/08/03 06:02:20;;;;;;;11.65;5.15;;;19.50;86.70;;;;;;5091173;28;20417;-48
2022/08/03 06:04:46;;;;;;;9.90;5.35;;;19.60;86.40;;;;;;5089753;28;20077;-48
2022/08/03 06:07:11;;;;;;;9.68;4.75;;;19.70;86.50;;;;;;5110616;28;20117;-47
2022/08/03 06:09:37;;;;;;;8.50;4.80;;;19.80;86.20;;;;;;5105561;28;20067;-48
2022/08/03 06:12:03;;;;;;;7.53;4.53;;;19.90;86.40;;;;;;5101742;28;20040;-48
2022/08/03 06:14:28;;;;;;;11.60;4.57;;;19.90;85.80;;;;;;5101449;28;20027;-46
2022/08/03 06:16:54;;;;;;;9.40;4.32;;;20.00;85.70;;;;;;5100956;28;20752;-45
2022/08/03 06:19:19;;;;;;;8.77;4.22;;;20.00;85.70;;;;;;5110059;28;20020;-48
2022/08/03 06:21:45;;;;;;;8.27;4.05;;;20.10;85.40;;;;;;5111197;28;20028;-50
2022/08/03 06:24:11;;;;;;;10.50;3.72;;;20.20;85.50;;;;;;5109494;28;20035;-48
2022/08/03 06:26:36;;;;;;;8.35;3.85;;;20.20;85.40;;;;;;5091147;28;20020;-46
2022/08/03 06:29:02;;;;;;;6.70;3.58;;;20.30;85.40;;;;;;5091159;28;20111;-48
2022/08/03 06:31:28;;;;;;;7.30;3.78;;;20.40;84.70;;;;;;5105041;28;20028;-49
2022/08/03 06:33:54;;;;;;;7.13;4.55;;;20.50;84.80;;;;;;5102002;28;20325;-46
2022/08/03 06:36:20;;;;;;;15.68;4.25;;;20.50;84.80;;;;;;5091840;28;20028;-46
2022/08/03 06:38:45;;;;;;;10.15;3.38;;;20.50;84.80;;;;;;5090711;28;20031;-49
2022/08/03 06:41:11;;;;;;;8.73;4.20;;;20.60;84.80;;;;;;5091750;28;20038;-47
2022/08/03 06:43:37;;;;;;;11.13;4.00;;;20.70;84.70;;;;;;5069141;28;20051;-51
2022/08/03 06:46:04;;;;;;;8.05;3.22;;;20.70;84.50;;;;;;5076515;28;20021;-50
2022/08/03 06:48:32;;;;;;;7.05;3.15;;;20.80;84.30;;;;;;5070168;28;20060;-47
2022/08/03 06:50:58;;;;;;;12.50;3.72;;;20.90;84.00;;;;;;5083786;28;20036;-48
2022/08/03 06:53:23;;;;;;;8.18;3.67;;;20.90;83.50;;;;;;5089991;28;20032;-46
2022/08/03 06:55:49;;;;;;;11.65;3.97;;;20.90;83.30;;;;;;5088774;28;20032;-48
2022/08/03 06:58:15;;;;;;;7.82;3.83;;;20.90;83.50;;;;;;5090109;28;20031;-47
2022/08/03 07:00:40;;;;;;;9.55;3.67;;;21.00;83.70;;;;;;5082635;28;20024;-47
2022/08/03 07:03:06;;;;;;;11.27;4.20;;;21.10;84.00;;;;;;5088376;28;20034;-48
2022/08/03 07:05:33;;;;;;;8.70;3.58;;;21.10;83.50;;;;;;5088998;28;20344;-47
2022/08/03 07:08:00;;;;;;;10.70;4.30;;;21.10;83.10;;;;;;5090589;28;20075;-48
2022/08/03 07:10:27;;;;;;;8.50;4.03;;;21.20;83.50;;;;;;5087488;28;20027;-46
2022/08/03 07:12:53;;;;;;;10.50;4.40;;;21.20;83.60;;;;;;5089864;28;20099;-46
2022/08/03 07:15:22;;;;;;;10.73;3.72;;;21.30;83.00;;;;;;5087488;28;20099;-47
2022/08/03 07:17:47;;;;;;;9.48;4.00;;;21.30;83.20;;;;;;5078406;28;20020;-46
2022/08/03 07:20:17;;;;;;;8.98;3.80;;;21.50;83.30;;;;;;5089179;28;20021;-47
2022/08/03 07:22:43;;;;;;;7.55;3.13;;;21.60;82.50;;;;;;5089635;28;20035;-48
2022/08/03 07:25:09;;;;;;;5.80;3.05;;;21.70;82.50;;;;;;5088558;28;20035;-46
2022/08/03 07:27:35;;;;;;;10.15;3.20;;;21.70;82.10;;;;;;5088667;28;20020;-50
2022/08/03 07:30:04;;;;;;;10.68;3.65;;;21.90;82.20;;;;;;5088052;28;20032;-48
2022/08/03 07:32:30;;;;;;;12.83;3.67;;;22.10;82.10;;;;;;5087757;28;20024;-46
2022/08/03 07:34:56;;;;;;;10.68;3.45;;;22.30;80.70;;;;;;5089090;28;20116;-47
2022/08/03 07:37:24;;;;;;;7.05;3.15;;;22.70;80.20;;;;;;5088253;28;20040;-47
2022/08/03 07:39:52;;;;;;;10.00;3.05;;;23.20;78.70;;;;;;5087164;28;20373;-47
2022/08/03 07:42:18;;;;;;;12.02;3.22;;;23.60;76.80;;;;;;5097445;28;20066;-47
2022/08/03 07:44:43;;;;;;;9.68;2.85;;;23.90;75.50;;;;;;5088032;28;20781;-47
2022/08/03 07:47:09;;;;;;;11.02;2.75;;;24.00;75.00;;;;;;5088737;28;20100;-48
2022/08/03 07:49:42;;;;;;;10.20;3.45;;;24.20;73.70;;;;;;5108439;28;20036;-47
2022/08/03 07:54:52;;;;;;;8.70;3.05;;;24.80;73.40;;;;;;5106940;28;20066;-51
2022/08/03 07:57:18;;;;;;;12.98;3.20;;;24.70;72.40;;;;;;5108381;28;20048;-48
2022/08/03 07:59:46;;;;;;;6.53;2.65;;;24.50;72.60;;;;;;5107517;28;20031;-50
2022/08/03 08:02:13;;;;;;;7.20;2.90;;;24.70;73.30;;;;;;5107819;28;20027;-49
2022/08/03 08:04:38;;;;;;;9.75;3.10;;;25.00;72.00;;;;;;5088973;28;20092;-49
2022/08/03 08:07:04;;;;;;;10.43;3.22;;;25.30;72.50;;;;;;5109094;28;20032;-47
2022/08/03 08:09:30;;;;;;;10.85;2.92;;;25.90;71.50;;;;;;5089911;28;20053;-50
2022/08/03 08:11:55;;;;;;;8.63;3.08;;;25.90;68.90;;;;;;5108885;28;20031;-47
2022/08/03 08:14:21;;;;;;;7.55;3.35;;;26.00;69.10;;;;;;5108344;28;20110;-47
2022/08/03 08:16:49;;;;;;;8.40;2.70;;;26.20;68.60;;;;;;5089719;28;20127;-47
2022/08/03 08:19:15;;;;;;;8.43;2.95;;;26.30;69.50;;;;;;5108049;28;20073;-47
2022/08/03 08:21:41;;;;;;;6.63;2.30;;;26.80;67.40;;;;;;5108745;28;20432;-47
2022/08/03 08:24:07;;;;;;;9.38;2.45;;;26.60;66.80;;;;;;5086892;28;20043;-47
2022/08/03 08:26:33;;;;;;;8.90;2.85;;;26.90;66.70;;;;;;5090276;28;20429;-47
2022/08/03 08:28:59;;;;;;;6.90;2.67;;;26.90;65.50;;;;;;5107780;28;20404;-48
2022/08/03 08:31:24;;;;;;;10.80;2.90;;;26.80;67.80;;;;;;5108168;28;20073;-48
2022/08/03 08:33:50;;;;;;;11.10;2.92;;;26.90;66.70;;;;;;5106171;28;20028;-47
2022/08/03 08:36:16;;;;;;;9.88;3.08;;;27.10;65.30;;;;;;5108831;28;20717;-49
2022/08/03 08:38:43;;;;;;;7.88;2.05;;;27.20;65.70;;;;;;5089742;28;20024;-49
2022/08/03 08:41:10;;;;;;;14.73;4.13;;;27.10;66.60;;;;;;5108249;28;20022;-49
2022/08/03 08:43:36;;;;;;;9.93;2.50;;;27.20;66.20;;;;;;5087800;28;20043;-48
2022/08/03 08:46:02;;;;;;;6.72;2.40;;;27.10;66.10;;;;;;5105933;28;20109;-49
2022/08/03 08:48:29;;;;;;;8.57;2.47;;;27.50;65.50;;;;;;5110411;28;20031;-51
2022/08/03 08:50:55;;;;;;;4.53;2.05;;;27.50;64.80;;;;;;5109750;28;20344;-48
2022/08/03 08:53:31;;;;;;;10.40;2.22;;;27.90;65.80;;;;;;5112017;28;20023;-48
2022/08/03 08:56:00;;;;;;;13.35;2.45;;;27.70;64.20;;;;;;5109465;28;20092;-49
2022/08/03 08:58:28;;;;;;;11.18;3.33;;;27.50;64.50;;;;;;5106484;28;20056;-47
2022/08/03 09:00:54;;;;;;;11.17;2.77;;;27.80;64.70;;;;;;5095813;28;20046;-48
2022/08/03 09:03:20;;;;;;;8.98;2.72;;;27.60;65.10;;;;;;5100987;28;20024;-50
2022/08/03 09:05:46;;;;;;;8.23;2.47;;;27.80;63.30;;;;;;5074729;28;20107;-52
2022/08/03 09:08:13;;;;;;;6.93;2.78;;;27.70;64.60;;;;;;5108615;28;20051;-49
2022/08/03 09:10:40;;;;;;;6.05;1.90;;;27.90;65.80;;;;;;5111854;28;20032;-50
2022/08/03 09:13:10;;;;;;;8.00;2.25;;;28.40;63.70;;;;;;5112125;28;20456;-47
2022/08/03 09:15:37;;;;;;;6.45;2.70;;;28.70;63.50;;;;;;5105904;28;20401;-48
2022/08/03 09:18:03;;;;;;;8.27;2.40;;;28.60;62.20;;;;;;5112322;28;20020;-49
2022/08/03 09:20:35;;;;;;;5.70;2.10;;;28.10;63.30;;;;;;5093636;28;20036;-47
2022/08/03 09:23:09;;;;;;;5.32;1.90;;;28.40;63.50;;;;;;5091398;28;20066;-47
2022/08/03 09:25:40;;;;;;;9.15;2.45;;;28.00;64.10;;;;;;5110091;28;20114;-50
2022/08/03 09:28:14;;;;;;;6.13;2.40;;;28.20;63.40;;;;;;5110429;28;20103;-50
2022/08/03 09:30:42;;;;;;;9.88;2.42;;;28.30;63.00;;;;;;5092901;28;20048;-47
2022/08/03 09:33:10;;;;;;;7.07;2.45;;;28.40;62.20;;;;;;5111995;28;20030;-48
2022/08/03 09:35:48;;;;;;;7.00;2.25;;;28.20;63.70;;;;;;5073772;28;20724;-50
2022/08/03 09:38:16;;;;;;;8.35;2.28;;;28.10;62.20;;;;;;5105293;28;20837;-47
2022/08/03 09:40:44;;;;;;;6.80;2.47;;;27.90;64.60;;;;;;5088674;28;20046;-48
2022/08/03 09:43:10;;;;;;;7.85;2.20;;;27.50;64.10;;;;;;5111645;28;20582;-47
2022/08/03 09:45:37;;;;;;;10.10;2.97;;;26.90;63.70;;;;;;5073085;28;20056;-47
2022/08/03 09:48:23;;;;;;;9.98;2.13;;;26.80;66.30;;;;;;5073544;28;20032;-51
2022/08/03 09:50:53;;;;;;;10.30;2.75;;;27.10;68.50;;;;;;5107912;28;20020;-47
2022/08/03 09:53:19;;;;;;;9.88;2.65;;;27.40;65.50;;;;;;5110734;28;20020;-50
2022/08/03 09:55:55;;;;;;;7.82;2.03;;;27.30;66.60;;;;;;5105943;28;20448;-48
2022/08/03 09:58:22;;;;;;;7.03;2.30;;;27.60;66.50;;;;;;5103267;28;20464;-48
2022/08/03 10:01:08;;;;;;;5.50;2.30;;;27.90;66.90;;;;;;5108768;28;20538;-48
2022/08/03 10:03:40;;;;;;;6.95;2.40;;;28.30;64.10;;;;;;5107772;28;20497;-48
2022/08/03 10:06:19;;;;;;;6.63;2.42;;;28.40;65.10;;;;;;5110268;28;20036;-49
2022/08/03 10:08:45;;;;;;;7.07;1.77;;;28.80;62.50;;;;;;5102830;28;20045;-50
2022/08/03 10:11:11;;;;;;;5.82;1.88;;;28.60;61.70;;;;;;5110618;28;20032;-47
2022/08/03 10:13:37;;;;;;;6.53;1.52;;;28.60;62.70;;;;;;5109683;28;20039;-48
2022/08/03 10:16:03;;;;;;;9.57;2.15;;;28.60;62.60;;;;;;5092528;28;20088;-47
2022/08/03 10:18:29;;;;;;;7.00;2.28;;;28.50;61.80;;;;;;5111672;28;20035;-47
2022/08/03 10:21:03;;;;;;;7.97;2.47;;;28.20;62.30;;;;;;5110447;28;20107;-48
2022/08/03 10:23:33;;;;;;;8.15;2.50;;;28.00;63.70;;;;;;5109685;28;20035;-47
2022/08/03 10:26:02;;;;;;;7.20;2.60;;;28.30;65.90;;;;;;5110823;28;20048;-48
2022/08/03 10:28:41;;;;;;;6.63;2.17;;;28.50;63.60;;;;;;5107520;28;20024;-52
2022/08/03 10:31:08;;;;;;;9.83;2.43;;;28.50;62.70;;;;;;5081470;28;20400;-54
2022/08/03 10:33:40;;;;;;;6.53;2.22;;;28.60;62.80;;;;;;5111121;28;20038;-49
2022/08/03 10:36:10;;;;;;;10.77;2.90;;;28.60;62.90;;;;;;5092687;28;20020;-47
2022/08/03 10:38:42;;;;;;;6.25;2.30;;;28.80;62.00;;;;;;5108918;28;20027;-48
2022/08/03 10:41:11;;;;;;;6.07;2.08;;;29.00;63.30;;;;;;5091373;28;20036;-48
2022/08/03 10:43:55;;;;;;;7.93;2.85;;;29.10;62.20;;;;;;5090350;28;20036;-47
2022/08/03 10:46:25;;;;;;;6.90;2.00;;;29.10;62.90;;;;;;5082762;28;20037;-51
2022/08/03 10:48:52;;;;;;;8.55;2.90;;;29.10;62.00;;;;;;5110436;28;20032;-48
2022/08/03 10:51:19;;;;;;;6.95;1.77;;;28.90;62.50;;;;;;5100849;28;20020;-49
2022/08/03 10:53:46;;;;;;;7.65;2.20;;;28.60;63.40;;;;;;5091920;28;20027;-48
2022/08/03 10:59:15;;;;;;;6.38;2.25;;;27.80;64.20;;;;;;5090209;28;20070;-48
2022/08/03 11:01:54;;;;;;;10.57;2.88;;;27.40;63.80;;;;;;5103561;28;20039;-48
2022/08/03 11:04:22;;;;;;;10.93;3.00;;;27.70;67.90;;;;;;5110394;28;20030;-49
2022/08/03 11:07:17;;;;;;;5.95;2.20;;;28.40;63.90;;;;;;5096328;28;20032;-49
2022/08/03 11:09:48;;;;;;;6.95;2.15;;;28.90;62.80;;;;;;5098343;28;20045;-48
2022/08/03 11:12:28;;;;;;;7.32;3.05;;;28.80;62.20;;;;;;5109290;28;20023;-48
2022/08/03 11:14:55;;;;;;;6.50;1.92;;;29.00;61.90;;;;;;5100254;28;20448;-48
2022/08/03 11:17:21;;;;;;;5.60;2.15;;;29.10;61.20;;;;;;5108802;28;20088;-48
2022/08/03 11:19:52;;;;;;;4.68;1.80;;;29.20;61.70;;;;;;5083854;28;20031;-48
2022/08/03 11:22:19;;;;;;;6.57;1.90;;;29.10;62.10;;;;;;5089585;28;20024;-48
2022/08/03 11:24:46;;;;;;;9.68;2.35;;;29.00;60.40;;;;;;5090712;28;20036;-48
2022/08/03 11:29:58;;;;;;;12.05;3.28;;;29.10;61.90;;;;;;5096632;28;20468;-48
2022/08/03 11:32:39;;;;;;;6.88;2.65;;;28.90;61.50;;;;;;5108324;28;20338;-48
2022/08/03 11:35:16;;;;;;;7.55;2.33;;;28.70;62.20;;;;;;5109236;28;20093;-48
2022/08/03 11:37:56;;;;;;;6.07;1.95;;;28.40;63.20;;;;;;5092330;28;20251;-50
2022/08/03 11:40:45;;;;;;;6.43;2.13;;;28.60;63.80;;;;;;5079801;28;20733;-49
2022/08/03 11:43:29;;;;;;;13.45;2.33;;;28.90;63.20;;;;;;5089110;28;20085;-48
2022/08/03 11:45:58;;;;;;;6.35;2.80;;;29.00;65.00;;;;;;5097649;28;20039;-48
2022/08/03 11:48:27;;;;;;;14.55;2.58;;;28.90;63.90;;;;;;5089344;28;20024;-47
2022/08/03 11:50:55;;;;;;;12.50;2.38;;;28.90;62.00;;;;;;5104692;28;20056;-48
2022/08/03 11:53:21;;;;;;;8.57;2.63;;;28.90;62.10;;;;;;5092048;28;20457;-47
2022/08/03 11:55:51;;;;;;;7.05;2.15;;;28.90;61.90;;;;;;5089600;28;20043;-49
2022/08/03 11:58:22;;;;;;;6.93;2.40;;;28.70;61.10;;;;;;5087160;28;20071;-47
2022/08/03 12:00:49;;;;;;;7.55;2.60;;;28.60;60.70;;;;;;5100484;28;20035;-48
2022/08/03 12:03:17;;;;;;;5.78;2.03;;;28.40;62.00;;;;;;5109282;28;20445;-48
2022/08/03 12:05:47;;;;;;;10.32;2.17;;;28.30;62.70;;;;;;5076868;28;20341;-47
2022/08/03 12:08:16;;;;;;;6.03;2.88;;;28.50;63.30;;;;;;5088963;28;20055;-47
2022/08/03 12:10:47;;;;;;;7.45;2.28;;;28.50;61.70;;;;;;5100941;28;20024;-48
2022/08/03 12:13:14;;;;;;;4.72;2.25;;;28.90;62.10;;;;;;5109094;28;20028;-47
2022/08/03 12:15:40;;;;;;;6.82;2.33;;;29.10;61.20;;;;;;5096573;28;20016;-48
2022/08/03 12:18:17;;;;;;;5.70;1.50;;;29.00;58.90;;;;;;5089129;28;20476;-48
2022/08/03 12:20:44;;;;;;;5.32;1.52;;;29.20;61.90;;;;;;5102539;28;20048;-47
2022/08/03 12:23:10;;;;;;;8.35;2.38;;;29.10;59.80;;;;;;5093575;28;20027;-48
2022/08/03 12:25:38;;;;;;;8.63;3.13;;;29.00;61.40;;;;;;5084326;28;20086;-47
2022/08/03 12:28:12;;;;;;;9.48;3.10;;;29.00;60.30;;;;;;5058742;28;20039;-49
2022/08/03 12:30:39;;;;;;;10.40;2.50;;;29.00;59.90;;;;;;5087337;28;20028;-47
2022/08/03 12:33:16;;;;;;;7.80;2.55;;;29.00;59.30;;;;;;5113600;28;20023;-48
2022/08/03 12:35:42;;;;;;;11.43;3.58;;;29.20;61.50;;;;;;5100488;28;20065;-47
2022/08/03 12:38:08;;;;;;;7.78;3.00;;;29.10;60.80;;;;;;5074928;28;20028;-47
2022/08/03 12:40:34;;;;;;;13.95;3.05;;;29.10;58.70;;;;;;5093888;28;20456;-47
2022/08/03 12:43:00;;;;;;;12.40;3.33;;;29.00;59.20;;;;;;5091693;28;20063;-47
2022/08/03 12:45:30;;;;;;;10.68;2.50;;;29.10;59.60;;;;;;5100359;28;20036;-48
2022/08/03 12:47:58;;;;;;;9.95;2.65;;;29.00;59.20;;;;;;5092757;28;20377;-47
2022/08/03 12:50:30;;;;;;;13.40;2.45;;;29.10;60.70;;;;;;5102869;28;20016;-49
2022/08/03 12:53:03;;;;;;;11.95;2.65;;;29.20;60.00;;;;;;5113089;28;20034;-47
2022/08/03 12:55:37;;;;;;;10.52;2.95;;;29.00;60.70;;;;;;5110754;28;20042;-47
2022/08/03 12:58:09;;;;;;;9.15;2.75;;;29.10;61.90;;;;;;5112394;28;20028;-48
2022/08/03 13:00:35;;;;;;;11.57;3.55;;;29.10;59.50;;;;;;5100003;28;20024;-52